createdAt,value
2022-09-21T04:26:09.124Z,4.90
2022-09-21T04:35:08.788Z,2.79
2022-09-21T04:47:30.800Z,3.38
2022-09-21T04:49:59.060Z,3.57
2022-09-21T04:52:28.517Z,4.10
2022-09-21T04:54:59.696Z,2.39
2022-09-21T04:57:30.743Z,1.94
2022-09-21T04:59:58.867Z,4.65
2022-09-21T05:02:26.802Z,3.19
2022-09-21T05:04:55.696Z,3.39
2022-09-21T05:07:26.459Z,3.35
2022-09-21T05:10:04.751Z,1.23
2022-09-21T05:12:33.844Z,3.39
2022-09-21T05:15:02.365Z,2.54
2022-09-21T05:17:30.364Z,3.33
2022-09-21T05:19:58.374Z,3.80
2022-09-21T05:38:15.348Z,4.78
2022-09-21T06:12:42.024Z,9.41
2022-09-21T06:15:14.583Z,8.40
2022-09-21T06:17:43.193Z,9.56
2022-09-21T06:20:11.404Z,11.35
2022-09-21T06:22:39.105Z,11.77
2022-09-21T06:25:08.153Z,12.17
2022-09-21T06:28:04.513Z,13.17
2022-09-21T06:30:45.057Z,12.20
2022-09-21T06:33:20.743Z,14.79
2022-09-21T06:35:54.358Z,16.18
2022-09-21T06:38:23.133Z,16.86
2022-09-21T06:40:52.641Z,17.40
2022-09-21T06:43:22.124Z,17.53
2022-09-21T06:45:57.288Z,17.84
2022-09-21T06:48:30.994Z,18.87
2022-09-21T06:51:02.856Z,18.18
2022-09-21T06:57:50.553Z,20.51
2022-09-21T07:01:08.277Z,22.46
2022-09-21T07:03:39.859Z,23.17
2022-09-21T07:06:09.161Z,23.23
2022-09-21T07:11:33.607Z,20.76
2022-09-21T07:14:04.206Z,17.87
2022-09-21T07:16:35.770Z,18.42
2022-09-21T07:19:11.355Z,16.52
2022-09-21T07:21:40.590Z,19.53
2022-09-21T07:24:12.201Z,21.85
2022-09-21T07:26:41.203Z,23.25
2022-09-21T07:29:09.323Z,22.95
2022-09-21T07:31:39.222Z,22.04
2022-09-21T07:34:07.317Z,21.45
2022-09-21T07:36:35.299Z,19.78
2022-09-21T07:39:04.012Z,18.58
2022-09-21T07:41:32.006Z,17.86
2022-09-21T07:43:59.978Z,17.25
2022-09-21T07:46:27.989Z,17.03
2022-09-21T07:48:57.853Z,17.31
2022-09-21T07:51:26.050Z,15.82
2022-09-21T07:53:57.375Z,16.83
2022-09-21T07:56:25.979Z,16.63
2022-09-21T07:59:07.928Z,15.43
2022-09-21T08:01:38.097Z,15.15
2022-09-21T08:04:09.200Z,15.59
2022-09-21T08:06:40.191Z,14.97
2022-09-21T08:09:08.710Z,14.90
2022-09-21T08:11:38.365Z,16.05
2022-09-21T08:14:06.501Z,15.46
2022-09-21T08:16:35.848Z,14.29
2022-09-21T08:19:05.339Z,15.71
2022-09-21T08:21:34.653Z,16.73
2022-09-21T08:24:02.945Z,16.08
2022-09-21T08:26:30.976Z,16.55
2022-09-21T08:28:59.111Z,18.66
2022-09-21T08:31:30.896Z,18.68
2022-09-21T08:34:02.755Z,21.51
2022-09-21T08:36:30.734Z,22.53
2022-09-21T08:39:00.073Z,25.24
2022-09-21T08:41:49.257Z,24.21
2022-09-21T08:44:21.278Z,25.25
2022-09-21T08:46:57.756Z,24.82
2022-09-21T08:49:28.882Z,26.24
2022-09-21T08:52:02.596Z,29.48
2022-09-21T08:54:39.314Z,31.62
2022-09-21T08:57:12.939Z,33.67
2022-09-21T08:59:44.322Z,34.22
2022-09-21T09:02:35.877Z,34.91
2022-09-21T09:05:19.455Z,35.65
2022-09-21T09:08:12.040Z,36.81
2022-09-21T09:10:50.863Z,37.73
2022-09-21T09:13:36.722Z,38.15
2022-09-21T09:16:15.994Z,39.21
2022-09-21T09:18:50.060Z,38.87
2022-09-21T09:21:30.845Z,39.19
2022-09-21T09:24:03.648Z,39.97
2022-09-21T09:26:42.764Z,40.71
2022-09-21T09:29:22.112Z,41.17
2022-09-21T09:31:54.862Z,41.95
2022-09-21T09:34:31.236Z,42.32
2022-09-21T09:37:04.883Z,42.46
2022-09-21T09:39:37.065Z,42.81
2022-09-21T09:42:41.407Z,43.05
2022-09-21T09:45:35.719Z,43.42
2022-09-21T09:48:27.947Z,43.30
2022-09-21T09:50:57.701Z,43.53
2022-09-21T09:53:28.880Z,43.13
2022-09-21T09:56:00.332Z,43.86
2022-09-21T09:58:39.848Z,44.15
2022-09-21T10:01:09.784Z,44.13
2022-09-21T10:03:38.428Z,44.47
2022-09-21T10:06:06.886Z,44.29
2022-09-21T10:08:44.343Z,44.07
2022-09-21T10:11:15.030Z,44.07
2022-09-21T10:13:47.560Z,43.94
2022-09-21T10:16:23.358Z,43.93
2022-09-21T10:18:56.387Z,44.16
2022-09-21T10:21:51.303Z,44.36
2022-09-21T10:24:24.560Z,44.80
2022-09-21T10:26:56.164Z,45.13
2022-09-21T10:30:00.139Z,45.87
2022-09-21T10:32:31.758Z,46.24
2022-09-21T10:35:15.235Z,46.40
2022-09-21T10:37:49.043Z,47.06
2022-09-21T10:40:30.856Z,47.17
2022-09-21T10:43:01.667Z,47.56
2022-09-21T10:45:32.681Z,46.84
2022-09-21T10:48:09.799Z,47.50
2022-09-21T10:50:40.102Z,47.70
2022-09-21T10:53:23.949Z,45.34
2022-09-21T10:56:15.012Z,41.55
2022-09-21T10:59:13.838Z,36.52
2022-09-21T11:01:47.592Z,34.06
2022-09-21T11:04:21.447Z,31.85
2022-09-21T11:06:55.919Z,30.36
2022-09-21T11:09:27.880Z,31.80
2022-09-21T11:15:03.240Z,39.42
2022-09-21T11:17:37.984Z,41.29
2022-09-21T11:20:17.117Z,42.84
2022-09-21T11:22:57.356Z,43.29
2022-09-21T11:25:33.680Z,43.12
2022-09-21T11:28:13.869Z,43.91
2022-09-21T11:31:01.868Z,44.69
2022-09-21T11:33:49.546Z,45.23
2022-09-21T11:36:29.862Z,45.28
2022-09-21T11:39:03.614Z,44.66
2022-09-21T11:41:55.566Z,45.70
2022-09-21T11:44:40.909Z,44.86
2022-09-21T11:47:35.813Z,41.08
2022-09-21T11:50:32.499Z,41.19
2022-09-21T11:53:25.417Z,42.65
2022-09-21T11:56:35.200Z,43.24
2022-09-21T11:59:19.134Z,43.73
2022-09-21T12:02:06.672Z,44.19
2022-09-21T12:04:45.559Z,44.60
2022-09-21T12:07:27.184Z,43.91
2022-09-21T12:10:10.900Z,43.12
2022-09-21T12:12:46.082Z,42.19
2022-09-21T12:15:21.492Z,40.42
2022-09-21T12:17:58.434Z,37.74
2022-09-21T12:20:36.413Z,34.77
2022-09-21T12:23:12.598Z,32.63
2022-09-21T12:25:45.433Z,30.88
2022-09-21T12:28:25.532Z,29.60
2022-09-21T12:31:00.760Z,28.51
2022-09-21T12:33:36.662Z,26.55
2022-09-21T12:36:12.086Z,25.70
2022-09-21T12:38:45.912Z,25.82
2022-09-21T12:41:19.836Z,25.23
2022-09-21T12:43:52.947Z,24.47
2022-09-21T12:46:25.110Z,24.62
2022-09-21T12:48:54.173Z,23.87
2022-09-21T12:51:28.385Z,23.07
2022-09-21T12:54:00.930Z,23.97
2022-09-21T12:56:40.376Z,21.67
2022-09-21T13:54:58.554Z,20.40
2022-09-21T14:03:16.118Z,20.00
2022-09-21T14:16:02.777Z,19.62
2022-09-21T14:19:29.732Z,19.59
2022-09-21T14:22:31.056Z,19.58
2022-09-21T19:56:58.680Z,8.91
2022-09-21T20:10:03.950Z,8.71
2022-09-21T20:12:54.105Z,8.45
2022-09-21T20:15:29.513Z,8.68
2022-09-21T20:18:09.469Z,7.27
2022-09-21T20:20:44.132Z,8.65
2022-09-21T20:23:14.726Z,5.92
2022-09-21T20:25:52.637Z,7.10
2022-09-21T20:28:23.830Z,8.13
2022-09-21T20:30:54.795Z,7.26
2022-09-21T20:33:27.100Z,8.56
2022-09-21T20:35:56.054Z,8.51
2022-09-21T20:38:25.152Z,8.15
2022-09-21T20:40:59.680Z,8.47
2022-09-21T20:43:32.776Z,8.06
2022-09-21T20:46:02.815Z,8.29
2022-09-21T20:48:32.216Z,8.37
2022-09-21T20:51:04.511Z,7.14
2022-09-21T21:01:28.786Z,7.98
2022-09-21T21:04:01.888Z,8.14
2022-09-21T21:06:32.555Z,8.00
2022-09-21T21:09:00.978Z,8.07
2022-09-21T21:11:29.131Z,8.05
2022-09-21T21:13:59.194Z,8.02
2022-09-21T21:16:27.371Z,7.98
2022-09-21T21:18:56.496Z,7.94
2022-09-21T21:21:24.583Z,7.61
2022-09-21T21:24:10.965Z,7.88
2022-09-21T21:27:00.658Z,7.83
2022-09-21T21:29:29.015Z,7.78
2022-09-21T21:31:56.986Z,7.76
2022-09-21T21:34:25.063Z,7.72
2022-09-21T21:36:53.763Z,5.14
2022-09-21T21:39:21.870Z,7.67
2022-09-21T21:41:49.972Z,6.00
2022-09-21T21:44:18.182Z,7.60
2022-09-21T21:46:47.952Z,7.58
2022-09-21T21:49:16.059Z,6.77
2022-09-21T21:51:57.808Z,7.53
2022-09-21T21:54:27.615Z,6.42
2022-09-21T21:56:56.126Z,7.26
2022-09-21T21:59:25.480Z,5.89
2022-09-21T22:01:55.407Z,7.43
2022-09-21T22:04:27.650Z,6.63
2022-09-21T22:06:56.152Z,7.37
2022-09-21T22:09:24.202Z,7.32
2022-09-21T22:11:52.326Z,7.29
2022-09-21T22:14:20.577Z,6.98
2022-09-21T22:16:48.590Z,7.25
2022-09-21T22:19:18.403Z,7.21
2022-09-21T22:21:51.707Z,6.79
2022-09-21T22:24:22.666Z,5.77
2022-09-21T22:26:51.191Z,6.66
2022-09-21T22:29:19.286Z,6.40
2022-09-21T22:31:50.727Z,6.72
2022-09-21T22:34:20.978Z,6.80
